createdAt,value
2019-06-26T00:01:46.309Z,101516.95
2019-06-26T00:04:14.827Z,101522.51
2019-06-26T00:06:43.704Z,101519.98
2019-06-26T00:09:12.249Z,101512.23
2019-06-26T00:11:40.868Z,101509.72
2019-06-26T00:14:09.430Z,101515.01
2019-06-26T00:16:37.984Z,101507.22
2019-06-26T00:19:07.018Z,101514.72
2019-06-26T00:21:35.592Z,101506.39
2019-06-26T00:24:04.128Z,101515.00
2019-06-26T00:26:32.653Z,101509.98
2019-06-26T00:29:01.220Z,101509.72
2019-06-26T00:31:29.718Z,101507.76
2019-06-26T00:33:58.248Z,101513.61
2019-06-26T00:36:26.843Z,101504.19
2019-06-26T00:38:55.345Z,101504.16
2019-06-26T00:41:23.863Z,101506.10
2019-06-26T00:43:52.460Z,101498.61
2019-06-26T00:46:21.069Z,101504.70
2019-06-26T00:48:49.581Z,101502.22
2019-06-26T00:51:18.106Z,101503.87
2019-06-26T00:53:46.674Z,101502.77
2019-06-26T00:56:15.254Z,101505.83
2019-06-26T00:58:43.795Z,101506.07
2019-06-26T01:01:12.597Z,101505.81
2019-06-26T01:03:41.178Z,101505.52
2019-06-26T01:06:16.170Z,101501.36
2019-06-26T01:08:44.657Z,101496.62
2019-06-26T01:11:13.170Z,101496.62
2019-06-26T01:13:57.135Z,101495.52
2019-06-26T01:16:11.883Z,101493.03
2019-06-26T01:18:40.393Z,101486.09
2019-06-26T01:21:08.939Z,101479.96
2019-06-26T01:23:38.031Z,101484.70
2019-06-26T01:26:06.775Z,101485.84
2019-06-26T01:28:35.319Z,101481.94
2019-06-26T01:31:03.867Z,101479.16
2019-06-26T01:33:32.360Z,101477.48
2019-06-26T01:36:00.894Z,101480.23
2019-06-26T01:38:29.479Z,101479.91
2019-06-26T01:40:58.097Z,101484.89
2019-06-26T01:43:26.621Z,101484.88
2019-06-26T01:45:55.142Z,101487.72
2019-06-26T01:48:23.615Z,101481.61
2019-06-26T01:50:52.200Z,101494.38
2019-06-26T01:53:21.048Z,101492.11
2019-06-26T01:55:50.354Z,101486.02
2019-06-26T01:58:18.882Z,101485.18
2019-06-26T02:00:47.442Z,101494.33
2019-06-26T02:03:16.152Z,101492.65
2019-06-26T02:05:44.663Z,101493.22
2019-06-26T02:08:13.150Z,101495.68
2019-06-26T02:10:41.705Z,101491.52
2019-06-26T02:13:10.244Z,101489.03
2019-06-26T02:15:38.795Z,101491.80
2019-06-26T02:18:26.417Z,101492.33
2019-06-26T02:20:54.941Z,101487.34
2019-06-26T02:23:23.511Z,101487.34
2019-06-26T02:25:52.045Z,101486.25
2019-06-26T02:28:20.573Z,101487.91
2019-06-26T02:30:49.128Z,101488.49
2019-06-26T02:33:17.946Z,101490.67
2019-06-26T02:35:46.593Z,101481.81
2019-06-26T02:38:15.228Z,101485.96
2019-06-26T02:40:44.027Z,101490.92
2019-06-26T02:43:12.554Z,101486.47
2019-06-26T02:45:41.095Z,101487.56
2019-06-26T02:48:09.654Z,101491.16
2019-06-26T02:50:38.172Z,101486.44
2019-06-26T02:53:06.667Z,101487.30
2019-06-26T02:55:35.207Z,101479.81
2019-06-26T02:58:03.713Z,101487.00
2019-06-26T03:00:32.267Z,101485.05
2019-06-26T03:03:01.045Z,101486.14
2019-06-26T03:05:29.844Z,101488.67
2019-06-26T03:07:58.352Z,101490.06
2019-06-26T03:10:26.938Z,101493.38
2019-06-26T03:12:55.452Z,101495.86
2019-06-26T03:15:23.971Z,101491.11
2019-06-26T03:17:55.717Z,101497.22
2019-06-26T03:20:28.727Z,101493.34
2019-06-26T03:22:56.628Z,101489.20
2019-06-26T03:25:25.146Z,101488.92
2019-06-26T03:27:54.104Z,101497.01
2019-06-26T03:30:24.336Z,101498.63
2019-06-26T03:32:52.806Z,101498.89
2019-06-26T03:35:21.638Z,101494.19
2019-06-26T03:37:50.136Z,101495.58
2019-06-26T03:40:18.687Z,101492.80
2019-06-26T03:42:47.193Z,101495.84
2019-06-26T03:45:25.562Z,101495.84
2019-06-26T03:47:46.304Z,101494.70
2019-06-26T03:50:14.844Z,101505.24
2019-06-26T03:52:43.386Z,101496.05
2019-06-26T03:55:11.931Z,101507.42
2019-06-26T03:57:40.884Z,101505.51
2019-06-26T04:00:09.410Z,101498.86
2019-06-26T04:02:37.927Z,101508.56
2019-06-26T04:05:06.462Z,101511.04
2019-06-26T04:07:35.002Z,101515.20
2019-06-26T04:10:03.733Z,101511.05
2019-06-26T04:12:32.614Z,101507.75
2019-06-26T04:15:01.244Z,101507.77
2019-06-26T04:17:29.944Z,101505.00
2019-06-26T04:19:58.675Z,101505.86
2019-06-26T04:22:27.575Z,101507.54
2019-06-26T04:24:56.083Z,101510.31
2019-06-26T04:27:24.934Z,101505.88
2019-06-26T04:29:53.437Z,101506.73
2019-06-26T04:32:21.973Z,101511.98
2019-06-26T04:34:50.564Z,101504.77
2019-06-26T04:37:19.122Z,101507.85
2019-06-26T04:39:47.942Z,101504.27
2019-06-26T04:42:16.443Z,101506.48
2019-06-26T04:44:45.038Z,101507.87
2019-06-26T04:47:13.555Z,101503.16
2019-06-26T04:49:42.137Z,101499.84
2019-06-26T04:52:10.677Z,101507.64
2019-06-26T04:54:39.211Z,101508.47
2019-06-26T04:57:07.721Z,101505.19
2019-06-26T04:59:36.289Z,101506.03
2019-06-26T05:02:04.807Z,101501.05
2019-06-26T05:04:33.306Z,101508.84
2019-06-26T05:07:01.869Z,101505.79
2019-06-26T05:09:30.446Z,101508.28
2019-06-26T05:11:59.251Z,101507.45
2019-06-26T05:14:27.744Z,101514.14
2019-06-26T05:16:56.265Z,101508.86
2019-06-26T05:19:24.794Z,101511.94
2019-06-26T05:21:53.338Z,101518.88
2019-06-26T05:24:21.856Z,101518.86
2019-06-26T05:26:50.388Z,101516.94
2019-06-26T05:29:18.916Z,101515.00
2019-06-26T05:31:47.425Z,101518.05
2019-06-26T05:34:15.924Z,101517.50
2019-06-26T05:36:44.775Z,101520.28
2019-06-26T05:39:13.561Z,101524.20
2019-06-26T05:41:42.132Z,101523.94
2019-06-26T05:44:10.915Z,101528.92
2019-06-26T05:46:39.430Z,101529.47
2019-06-26T05:49:08.183Z,101524.75
2019-06-26T05:51:36.696Z,101524.75
2019-06-26T05:54:05.384Z,101525.31
2019-06-26T05:56:33.878Z,101530.31
2019-06-26T05:59:02.585Z,101536.97
2019-06-26T06:01:31.099Z,101538.07
2019-06-26T06:03:59.924Z,101535.03
2019-06-26T06:06:41.214Z,101550.58
2019-06-26T06:09:00.321Z,101553.64
2019-06-26T06:11:28.886Z,101548.92
2019-06-26T06:13:57.421Z,101555.58
2019-06-26T06:16:25.961Z,101564.76
2019-06-26T06:18:54.489Z,101566.70
2019-06-26T06:21:22.990Z,101563.33
2019-06-26T06:23:51.511Z,101563.08
2019-06-26T06:26:20.187Z,101560.00
2019-06-26T06:28:48.661Z,101569.19
2019-06-26T06:31:17.595Z,101575.03
2019-06-26T06:33:46.463Z,101585.02
2019-06-26T06:36:15.021Z,101584.47
2019-06-26T06:38:43.607Z,101589.48
2019-06-26T06:41:12.148Z,101590.88
2019-06-26T06:43:40.684Z,101598.41
2019-06-26T06:46:09.333Z,101598.95
2019-06-26T06:48:38.207Z,101605.35
2019-06-26T06:51:06.670Z,101607.29
2019-06-26T06:53:35.293Z,101605.90
2019-06-26T06:56:04.004Z,101604.51
2019-06-26T06:58:32.579Z,101602.57
2019-06-26T07:01:01.551Z,101603.95
2019-06-26T07:03:30.125Z,101609.52
2019-06-26T07:05:58.622Z,101607.55
2019-06-26T07:08:27.125Z,101618.67
2019-06-26T07:10:55.928Z,101627.02
2019-06-26T07:13:24.746Z,101620.34
2019-06-26T07:15:53.306Z,101628.14
2019-06-26T07:18:21.838Z,101632.57
2019-06-26T07:20:50.655Z,101639.81
2019-06-26T07:23:19.189Z,101647.57
2019-06-26T07:25:47.762Z,101652.33
2019-06-26T07:28:16.378Z,101653.72
2019-06-26T07:30:44.865Z,101656.20
2019-06-26T07:33:13.408Z,101654.52
2019-06-26T07:35:41.934Z,101653.42
2019-06-26T07:38:10.531Z,101656.20
2019-06-26T07:40:39.008Z,101653.42
2019-06-26T07:43:07.572Z,101655.61
2019-06-26T07:45:36.470Z,101656.99
2019-06-26T07:48:04.971Z,101671.20
2019-06-26T07:50:33.538Z,101661.16
2019-06-26T07:53:02.198Z,101666.47
2019-06-26T07:55:30.759Z,101666.72
2019-06-26T07:57:59.778Z,101671.98
2019-06-26T08:00:31.568Z,101668.40
2019-06-26T08:02:58.556Z,101673.12
2019-06-26T08:05:27.063Z,101675.34
2019-06-26T08:07:55.682Z,101632.80
2019-06-26T08:10:24.209Z,101680.34
2019-06-26T08:12:52.842Z,101682.28
2019-06-26T08:15:21.364Z,101686.45
2019-06-26T08:18:00.055Z,101688.14
2019-06-26T08:20:20.179Z,101690.94
2019-06-26T08:22:48.706Z,101692.33
2019-06-26T08:25:17.509Z,101685.08
2019-06-26T08:27:45.981Z,101693.42
2019-06-26T08:30:14.544Z,101684.52
2019-06-26T08:32:43.071Z,101687.55
2019-06-26T08:35:11.594Z,101680.87
2019-06-26T08:37:40.183Z,101686.44
2019-06-26T08:40:08.885Z,101688.13
2019-06-26T08:42:37.384Z,101682.55
2019-06-26T08:45:06.093Z,101678.34
2019-06-26T08:47:34.710Z,101682.79
2019-06-26T08:50:03.328Z,101679.70
2019-06-26T08:52:32.152Z,101687.20
2019-06-26T08:55:00.723Z,101688.59
2019-06-26T08:57:29.236Z,101701.13
2019-06-26T08:59:57.745Z,101688.59
2019-06-26T09:02:26.325Z,101711.46
2019-06-26T09:04:57.060Z,101705.89
2019-06-26T09:07:25.603Z,101699.45
2019-06-26T09:09:54.396Z,101711.39
2019-06-26T09:12:22.959Z,101715.84
2019-06-26T09:14:51.613Z,101721.66
2019-06-26T09:17:20.141Z,101731.40
2019-06-26T09:19:49.180Z,101731.13
2019-06-26T09:22:17.751Z,101738.92
2019-06-26T09:24:46.298Z,101748.67
2019-06-26T09:27:17.271Z,101746.19
2019-06-26T09:29:45.778Z,101748.11
2019-06-26T09:32:14.320Z,101753.42
2019-06-26T09:34:42.964Z,101747.56
2019-06-26T09:37:11.520Z,101760.39
2019-06-26T09:39:40.026Z,101742.30
2019-06-26T09:42:08.692Z,101757.88
2019-06-26T09:44:37.338Z,101765.13
2019-06-26T09:47:05.875Z,101766.52
2019-06-26T09:49:34.544Z,101765.38
2019-06-26T09:52:03.134Z,101765.96
2019-06-26T09:54:31.752Z,101765.39
2019-06-26T09:57:00.251Z,101766.78
2019-06-26T09:59:29.261Z,101785.73
2019-06-26T10:01:57.789Z,101789.91
2019-06-26T10:04:26.354Z,101781.30
2019-06-26T10:06:55.048Z,101788.27
2019-06-26T10:09:23.603Z,101782.16
2019-06-26T10:11:52.514Z,101796.33
2019-06-26T10:14:21.026Z,101790.50
2019-06-26T10:16:49.560Z,101799.12
2019-06-26T10:19:18.041Z,101794.14
2019-06-26T10:21:46.636Z,101811.40
2019-06-26T10:24:15.174Z,101807.52
2019-06-26T10:26:43.711Z,101813.91
2019-06-26T10:29:12.272Z,101819.77
2019-06-26T10:31:40.851Z,101819.47
2019-06-26T10:34:10.303Z,101828.97
2019-06-26T10:36:39.295Z,101840.39
2019-06-26T10:39:08.998Z,101846.80
2019-06-26T10:41:37.547Z,101833.98
2019-06-26T10:44:06.046Z,101844.02
2019-06-26T10:46:34.571Z,101848.19
2019-06-26T10:49:03.146Z,101844.30
2019-06-26T10:51:31.701Z,101848.48
2019-06-26T10:54:00.226Z,101840.94
2019-06-26T10:56:28.973Z,101841.52
2019-06-26T10:58:58.216Z,101838.73
2019-06-26T11:01:26.990Z,101844.30
2019-06-26T11:03:55.597Z,101855.94
2019-06-26T11:06:24.120Z,101848.72
2019-06-26T11:08:52.873Z,101850.37
2019-06-26T11:11:21.407Z,101857.88
2019-06-26T11:13:49.940Z,101854.83
2019-06-26T11:16:18.506Z,101849.55
2019-06-26T11:18:47.017Z,101855.36
2019-06-26T11:21:15.587Z,101863.71
2019-06-26T11:23:44.109Z,101868.44
2019-06-26T11:26:12.667Z,101864.28
2019-06-26T11:28:41.245Z,101854.53
2019-06-26T11:31:09.942Z,101866.19
2019-06-26T11:33:38.732Z,101858.38
2019-06-26T11:36:07.238Z,101856.99
2019-06-26T11:38:36.036Z,101862.59
2019-06-26T11:41:04.521Z,101853.16
2019-06-26T11:43:33.554Z,101855.08
2019-06-26T11:46:02.088Z,101864.27
2019-06-26T11:48:30.577Z,101860.35
2019-06-26T11:50:59.120Z,101864.80
2019-06-26T11:53:27.905Z,101880.66
2019-06-26T11:55:56.489Z,101866.48
2019-06-26T11:58:25.104Z,101871.52
2019-06-26T12:00:53.849Z,101871.79
2019-06-26T12:03:22.458Z,101877.89
2019-06-26T12:05:50.990Z,101880.96
2019-06-26T12:08:19.518Z,101886.84
2019-06-26T12:10:48.017Z,101900.77
2019-06-26T12:13:16.566Z,101899.08
2019-06-26T12:15:45.099Z,101891.02
2019-06-26T12:18:13.887Z,101897.69
2019-06-26T12:20:42.441Z,101899.92
2019-06-26T12:23:10.920Z,101894.87
2019-06-26T12:25:39.599Z,101898.45
2019-06-26T12:28:08.108Z,101904.86
2019-06-26T12:30:36.874Z,101895.13
2019-06-26T12:33:05.404Z,101899.34
2019-06-26T12:35:34.062Z,101901.59
2019-06-26T12:38:02.631Z,101907.13
2019-06-26T12:40:31.582Z,101908.80
2019-06-26T12:43:00.143Z,101917.98
2019-06-26T12:45:28.652Z,101909.30
2019-06-26T12:47:57.253Z,101906.53
2019-06-26T12:50:35.474Z,101912.39
2019-06-26T12:52:56.423Z,101921.03
2019-06-26T12:55:25.513Z,101910.74
2019-06-26T12:58:08.159Z,101921.53
2019-06-26T13:00:24.313Z,101904.83
2019-06-26T13:02:52.782Z,101906.47
2019-06-26T13:05:21.308Z,101916.23
2019-06-26T13:07:49.864Z,101905.12
2019-06-26T13:10:18.346Z,101911.56
2019-06-26T13:12:46.848Z,101902.39
2019-06-26T13:15:15.393Z,101907.93
2019-06-26T13:17:43.906Z,101920.75
2019-06-26T13:20:12.727Z,101924.41
2019-06-26T13:22:41.510Z,101916.95
2019-06-26T13:25:10.078Z,101920.84
2019-06-26T13:27:38.903Z,101928.63
2019-06-26T13:30:07.463Z,101909.70
2019-06-26T13:32:36.047Z,101905.81
2019-06-26T13:35:04.845Z,101911.36
2019-06-26T13:37:33.369Z,101904.41
2019-06-26T13:40:01.921Z,101918.60
2019-06-26T13:42:30.493Z,101907.20
2019-06-26T13:44:59.007Z,101913.30
2019-06-26T13:47:27.538Z,101933.86
2019-06-26T13:49:56.114Z,101935.78
2019-06-26T13:52:24.787Z,101920.46
2019-06-26T13:54:57.004Z,101929.41
2019-06-26T13:57:23.569Z,101924.10
2019-06-26T13:59:52.438Z,101939.95
2019-06-26T14:02:20.981Z,101928.26
2019-06-26T14:04:49.852Z,101936.80
2019-06-26T14:07:18.651Z,101939.62
2019-06-26T14:09:47.301Z,101931.91
2019-06-26T14:12:19.015Z,101924.99
2019-06-26T14:14:57.186Z,101944.22
2019-06-26T14:17:16.363Z,101931.98
2019-06-26T14:19:44.885Z,101943.09
2019-06-26T14:22:14.213Z,101935.23
2019-06-26T14:24:42.804Z,101934.13
2019-06-26T14:27:11.337Z,101948.87
2019-06-26T14:29:39.869Z,101947.55
2019-06-26T14:32:08.382Z,101944.50
2019-06-26T14:34:36.963Z,101946.17
2019-06-26T14:37:05.491Z,101956.78
2019-06-26T14:39:34.283Z,101955.67
2019-06-26T14:42:02.863Z,101947.86
2019-06-26T14:44:31.339Z,101954.27
2019-06-26T14:46:59.880Z,101967.91
2019-06-26T14:49:28.784Z,101983.83
2019-06-26T14:51:57.459Z,101976.28
2019-06-26T14:54:26.084Z,101970.70
2019-06-26T14:56:54.727Z,101970.39
2019-06-26T14:59:23.290Z,101988.47
2019-06-26T15:01:51.842Z,101983.78
2019-06-26T15:04:20.392Z,101970.93
2019-06-26T15:06:48.893Z,101979.77
2019-06-26T15:09:17.377Z,101964.42
2019-06-26T15:11:45.895Z,101959.41
2019-06-26T15:14:14.542Z,101964.44
2019-06-26T15:16:43.076Z,101961.05
2019-06-26T15:19:11.561Z,101961.31
2019-06-26T15:21:40.068Z,101971.53
2019-06-26T15:24:08.624Z,101967.55
2019-06-26T15:26:37.502Z,101963.62
2019-06-26T15:29:06.050Z,101972.16
2019-06-26T15:31:34.590Z,101968.34
2019-06-26T15:34:03.125Z,101970.10
2019-06-26T15:36:31.969Z,101980.39
2019-06-26T15:39:00.607Z,101966.91
2019-06-26T15:41:29.165Z,101972.98
2019-06-26T15:43:58.479Z,101979.75
2019-06-26T15:46:27.255Z,101979.56
2019-06-26T15:48:55.780Z,101970.20
2019-06-26T15:51:24.593Z,101973.11
2019-06-26T15:53:53.039Z,101970.85
2019-06-26T15:56:21.587Z,101972.53
2019-06-26T15:58:50.122Z,101987.66
2019-06-26T16:01:18.636Z,101990.95
2019-06-26T16:03:47.478Z,101974.98
2019-06-26T16:06:16.279Z,102004.19
2019-06-26T16:08:44.842Z,101998.03
2019-06-26T16:11:13.343Z,101998.77
2019-06-26T16:13:41.928Z,102014.31
2019-06-26T16:16:10.512Z,101999.15
2019-06-26T16:18:43.728Z,101999.15
2019-06-26T16:21:12.269Z,102018.80
2019-06-26T16:23:40.806Z,102024.50
2019-06-26T16:26:09.360Z,102016.80
2019-06-26T16:28:38.486Z,102054.02
2019-06-26T16:31:06.966Z,102026.62
2019-06-26T16:33:35.475Z,102025.84
2019-06-26T16:36:04.325Z,102021.23
2019-06-26T16:38:32.840Z,102033.03
2019-06-26T16:41:01.359Z,102033.81
2019-06-26T16:43:29.846Z,102050.09
2019-06-26T16:45:58.399Z,102038.32
2019-06-26T16:48:27.209Z,102033.69
2019-06-26T16:50:55.742Z,102034.66
2019-06-26T16:53:24.588Z,102025.33
2019-06-26T16:55:53.332Z,102037.75
2019-06-26T16:58:21.867Z,102040.73
2019-06-26T17:00:50.389Z,102043.05
2019-06-26T17:03:18.867Z,102029.66
2019-06-26T17:05:47.748Z,102039.41
2019-06-26T17:08:16.340Z,102052.14
2019-06-26T17:10:44.933Z,102049.50
2019-06-26T17:13:13.406Z,102036.52
2019-06-26T17:15:41.959Z,102036.00
2019-06-26T17:18:10.532Z,102033.97
2019-06-26T17:20:39.260Z,102027.65
2019-06-26T17:23:08.167Z,102032.41
2019-06-26T17:25:36.703Z,102043.00
2019-06-26T17:28:05.737Z,102043.63
2019-06-26T17:30:34.605Z,102036.36
2019-06-26T17:33:03.200Z,102040.77
2019-06-26T17:35:31.718Z,102041.70
2019-06-26T17:38:00.336Z,102044.83
2019-06-26T17:40:28.844Z,102045.98
2019-06-26T17:43:11.337Z,102047.66
2019-06-26T17:45:27.568Z,102051.55
2019-06-26T17:47:56.091Z,102039.52
2019-06-26T17:50:24.614Z,102040.80
2019-06-26T17:52:53.121Z,102047.48
2019-06-26T17:55:21.652Z,102045.78
2019-06-26T17:57:50.285Z,102054.56
2019-06-26T18:00:22.963Z,102061.03
2019-06-26T18:02:51.562Z,102056.44
2019-06-26T18:05:20.174Z,102062.44
2019-06-26T18:07:48.769Z,102062.12
2019-06-26T18:10:17.364Z,102056.20
2019-06-26T18:12:45.850Z,102053.20
2019-06-26T18:15:14.432Z,102068.98
2019-06-26T18:17:43.008Z,102057.53
2019-06-26T18:20:12.042Z,102060.95
2019-06-26T18:22:40.861Z,102057.09
2019-06-26T18:25:09.661Z,102062.27
2019-06-26T18:27:38.275Z,102067.70
2019-06-26T18:30:06.877Z,102078.77
2019-06-26T18:32:35.704Z,102079.34
2019-06-26T18:35:04.590Z,102078.08
2019-06-26T18:37:33.382Z,102075.86
2019-06-26T18:40:01.918Z,102087.47
2019-06-26T18:42:30.394Z,102092.14
2019-06-26T18:44:58.937Z,102082.66
2019-06-26T18:47:27.739Z,102099.33
2019-06-26T18:49:56.631Z,102102.02
2019-06-26T18:52:25.216Z,102106.97
2019-06-26T18:54:53.737Z,102104.75
2019-06-26T18:57:22.482Z,102104.37
2019-06-26T18:59:51.005Z,102104.70
2019-06-26T19:02:19.592Z,102113.19
2019-06-26T19:04:48.151Z,102122.30
2019-06-26T19:07:16.699Z,102116.44
2019-06-26T19:09:45.608Z,102121.27
2019-06-26T19:12:14.129Z,102125.14
2019-06-26T19:14:45.936Z,102127.30
2019-06-26T19:17:12.899Z,102127.58
2019-06-26T19:19:41.423Z,102133.58
2019-06-26T19:22:09.896Z,102131.72
2019-06-26T19:24:38.488Z,102121.79
2019-06-26T19:27:07.805Z,102134.34
2019-06-26T19:29:36.536Z,102132.80
2019-06-26T19:32:05.134Z,102133.77
2019-06-26T19:34:33.639Z,102147.58
2019-06-26T19:37:02.188Z,102150.55
2019-06-26T19:39:30.990Z,102154.45
2019-06-26T19:41:59.554Z,102166.13
2019-06-26T19:44:28.104Z,102158.09
2019-06-26T19:46:56.589Z,102152.88
2019-06-26T19:49:25.131Z,102151.49
2019-06-26T19:51:53.850Z,102148.91
2019-06-26T19:54:26.995Z,102152.42
2019-06-26T19:56:52.697Z,102162.68
2019-06-26T19:59:21.238Z,102150.70
2019-06-26T20:01:51.481Z,102149.41
2019-06-26T20:04:20.112Z,102151.70
2019-06-26T20:06:48.628Z,102154.16
2019-06-26T20:09:17.140Z,102151.02
2019-06-26T20:11:45.674Z,102159.86
2019-06-26T20:14:14.201Z,102159.95
2019-06-26T20:16:42.690Z,102149.46
2019-06-26T20:19:11.557Z,102167.86
2019-06-26T20:21:40.017Z,102175.94
2019-06-26T20:24:08.508Z,102157.91
2019-06-26T20:26:36.943Z,102165.40
2019-06-26T20:29:05.421Z,102169.88
2019-06-26T20:31:33.905Z,102182.84
2019-06-26T20:34:02.660Z,102177.58
2019-06-26T20:36:31.162Z,102177.90
2019-06-26T20:38:59.636Z,102180.13
2019-06-26T20:41:28.137Z,102177.34
2019-06-26T20:43:56.647Z,102179.00
2019-06-26T20:46:25.099Z,102171.94
2019-06-26T20:48:53.851Z,102182.08
2019-06-26T20:51:22.459Z,102178.52
2019-06-26T20:53:51.026Z,102178.66
2019-06-26T20:56:19.814Z,102182.74
2019-06-26T20:58:48.293Z,102183.56
2019-06-26T21:01:16.739Z,102186.21
2019-06-26T21:03:45.269Z,102179.69
2019-06-26T21:06:13.709Z,102185.38
2019-06-26T21:08:42.201Z,102184.63
2019-06-26T21:11:10.828Z,102181.03
2019-06-26T21:13:39.669Z,102187.06
2019-06-26T21:16:08.128Z,102192.20
2019-06-26T21:18:36.654Z,102192.27
2019-06-26T21:21:05.217Z,102190.80
2019-06-26T21:23:33.681Z,102190.83
2019-06-26T21:26:02.211Z,102205.44
2019-06-26T21:28:30.690Z,102201.66
2019-06-26T21:30:59.233Z,102213.09
2019-06-26T21:33:27.718Z,102199.37
2019-06-26T21:35:56.153Z,102189.89
2019-06-26T21:38:24.644Z,102190.86
2019-06-26T21:40:53.146Z,102203.73
2019-06-26T21:43:21.671Z,102202.44
2019-06-26T21:45:50.161Z,102201.07
2019-06-26T21:48:18.651Z,102205.38
2019-06-26T21:50:47.161Z,102203.81
2019-06-26T21:53:15.673Z,102198.64
2019-06-26T21:55:44.168Z,102202.98
2019-06-26T21:58:12.668Z,102198.53
2019-06-26T22:00:41.394Z,102204.44
2019-06-26T22:03:10.213Z,102199.81
2019-06-26T22:05:39.008Z,102206.05
2019-06-26T22:08:07.502Z,102204.68
2019-06-26T22:10:36.370Z,102207.86
2019-06-26T22:13:05.155Z,102199.48
2019-06-26T22:15:33.709Z,102206.05
2019-06-26T22:18:02.178Z,102206.46
2019-06-26T22:20:30.666Z,102202.78
2019-06-26T22:22:59.178Z,102207.41
2019-06-26T22:25:27.911Z,102210.17
2019-06-26T22:27:56.415Z,102213.63
2019-06-26T22:30:25.338Z,102204.02
2019-06-26T22:32:53.810Z,102208.06
2019-06-26T22:35:22.330Z,102209.62
2019-06-26T22:37:50.824Z,102206.69
2019-06-26T22:40:19.371Z,102210.17
2019-06-26T22:42:47.847Z,102221.15
2019-06-26T22:45:16.760Z,102220.81
2019-06-26T22:47:45.250Z,102219.75
2019-06-26T22:50:13.751Z,102222.78
2019-06-26T22:52:42.262Z,102227.94
2019-06-26T22:55:10.775Z,102231.20
2019-06-26T22:57:39.308Z,102232.79
2019-06-26T23:00:08.076Z,102236.45
2019-06-26T23:02:36.607Z,102226.85
2019-06-26T23:05:05.882Z,102230.97
2019-06-26T23:07:34.391Z,102225.98
2019-06-26T23:10:02.869Z,102225.84
2019-06-26T23:12:31.395Z,102238.58
2019-06-26T23:14:59.895Z,102237.84
2019-06-26T23:17:28.407Z,102235.85
2019-06-26T23:19:56.983Z,102235.58
2019-06-26T23:22:25.479Z,102239.09
2019-06-26T23:24:54.090Z,102231.53
2019-06-26T23:27:22.623Z,102241.19
2019-06-26T23:29:51.091Z,102241.50
2019-06-26T23:32:19.626Z,102241.69
2019-06-26T23:34:48.150Z,102243.20
2019-06-26T23:37:16.924Z,102250.14
2019-06-26T23:39:45.746Z,102242.08
2019-06-26T23:42:14.255Z,102243.17
2019-06-26T23:44:42.792Z,102242.08
2019-06-26T23:47:11.319Z,102240.92
2019-06-26T23:49:39.900Z,102238.42
2019-06-26T23:52:08.398Z,102242.32
2019-06-26T23:54:36.923Z,102251.14
2019-06-26T23:57:05.442Z,102250.67
2019-06-26T23:59:33.926Z,102247.94
